Wheat Ridge, CO (80034)

1:54 AM MDT on May 26, 2015 (GMT -0600)
Crown Hill Park | | Change Station
CLOSE
Current Station
Personal Weather Station
Location: Wheat Ridge, CO
Elevation: 5480 ft
Nearby Weather Stations

Elev 5480 ft 39.77 °N, 105.10 °W | Updated 6 minutes ago

Partly Cloudy
Partly Cloudy
48.0 °F
Feels Like 48 °F
N
0.0
Wind Variable Wind from WNW

Today
High -- | Low -- °F
--% Chance of Precip.
Yesterday
High -- | Low -- °F
Precip. -- in
5:37 AM 8:17 PM
First Quarter, 56% visible
Pressure 30.02 in
Visibility 10.0 miles
Clouds Scattered Clouds 8500 ft
Windchill 48 °F
Dew Point 45 °F
Humidity 90%
Rainfall 0.00 in
Snow Depth Not available.
UV 0 out of 12
Pollen 6.50 out of 12
Air Quality Not available.
Flu Activity Sporadic
METAR KBJC 260736Z AUTO 24003KT 10SM SCT085 08/06 A3002 RMK AO2

More Conditions Fewer Conditions

Pressure 30.02 in
Visibility 10.0 miles
Clouds Scattered Clouds 8500 ft
Windchill 48 °F
Dew Point 45 °F
Humidity 90%
Rainfall 0.00 in
Snow Depth Not available.
UV 0 out of 12
Pollen 6.50 out of 12
Air Quality Not available.
Flu Activity Sporadic
METAR KBJC 260736Z AUTO 24003KT 10SM SCT085 08/06 A3002 RMK AO2

More Conditions Fewer Conditions

10-Day Weather Forecast

Almanac

Astronomy

May. 26, 2015 Rise Set
Actual Time
Civil Twilight
Nautical Twilight
Astronomical Twilight
Moon
Length of Visible Light
Length of Day
Tomorrow will be .
, % of the Moon is Illuminated

Today's Extremes

State Highs State Lows

Community

WunderPhotos

Upload Photos

1,824,302 photos uploaded!

WunderBlogs® & News

Nearby

Air Quality

  Air Quality AQ Index Pollutant
Not available.

Snow Depth

Station Depth Elevation

Earthquake Activity

City Distance Mag. Time & Date
Minimum magnitude displayed is 2.5.

Coastal Water Temperatures

Place Temperature

Stations

Nearby Weather Stations

Station Location Temp. Windchill Dew Point Humidity Wind Precip. Elev Updated Type